sensor_id;sensor_type;location;lat;lon;timestamp;P1;durP1;ratioP1;P2;durP2;ratioP2
13185;SDS011;6658;53.080;7.428;2022-12-29T00:02:10;2.20;;;2.00;;
13185;SDS011;6658;53.080;7.428;2022-12-29T00:04:37;1.93;;;1.83;;
13185;SDS011;6658;53.080;7.428;2022-12-29T00:07:03;2.47;;;1.70;;
13185;SDS011;6658;53.080;7.428;2022-12-29T00:09:32;2.27;;;1.97;;
13185;SDS011;6658;53.080;7.428;2022-12-29T00:11:58;2.07;;;1.63;;
13185;SDS011;6658;53.080;7.428;2022-12-29T00:14:25;1.53;;;1.43;;
13185;SDS011;6658;53.080;7.428;2022-12-29T00:17:09;2.23;;;1.90;;
13185;SDS011;6658;53.080;7.428;2022-12-29T00:19:35;1.90;;;1.80;;
13185;SDS011;6658;53.080;7.428;2022-12-29T00:22:19;1.90;;;1.80;;
13185;SDS011;6658;53.080;7.428;2022-12-29T00:25:04;1.97;;;1.87;;
13185;SDS011;6658;53.080;7.428;2022-12-29T00:27:30;2.00;;;1.90;;
13185;SDS011;6658;53.080;7.428;2022-12-29T00:30:16;2.53;;;2.00;;
13185;SDS011;6658;53.080;7.428;2022-12-29T00:33:09;2.20;;;2.00;;
13185;SDS011;6658;53.080;7.428;2022-12-29T00:36:08;2.10;;;1.90;;
13185;SDS011;6658;53.080;7.428;2022-12-29T00:38:42;2.07;;;1.87;;
13185;SDS011;6658;53.080;7.428;2022-12-29T00:41:32;2.00;;;1.90;;
13185;SDS011;6658;53.080;7.428;2022-12-29T00:44:16;2.20;;;2.10;;
13185;SDS011;6658;53.080;7.428;2022-12-29T00:46:42;1.93;;;1.83;;
13185;SDS011;6658;53.080;7.428;2022-12-29T00:49:09;1.87;;;1.70;;
13185;SDS011;6658;53.080;7.428;2022-12-29T00:51:56;3.30;;;2.00;;
13185;SDS011;6658;53.080;7.428;2022-12-29T00:54:28;2.00;;;1.80;;
13185;SDS011;6658;53.080;7.428;2022-12-29T00:56:55;2.23;;;2.00;;
13185;SDS011;6658;53.080;7.428;2022-12-29T00:59:20;2.00;;;1.80;;
13185;SDS011;6658;53.080;7.428;2022-12-29T01:01:46;3.60;;;2.13;;
13185;SDS011;6658;53.080;7.428;2022-12-29T01:04:12;2.00;;;1.90;;
13185;SDS011;6658;53.080;7.428;2022-12-29T01:06:39;2.10;;;2.00;;
13185;SDS011;6658;53.080;7.428;2022-12-29T01:09:06;2.33;;;2.13;;
13185;SDS011;6658;53.080;7.428;2022-12-29T01:11:50;2.30;;;2.10;;
13185;SDS011;6658;53.080;7.428;2022-12-29T01:14:17;2.20;;;2.00;;
13185;SDS011;6658;53.080;7.428;2022-12-29T01:16:43;2.17;;;2.07;;
13185;SDS011;6658;53.080;7.428;2022-12-29T01:19:10;2.50;;;2.30;;
13185;SDS011;6658;53.080;7.428;2022-12-29T01:21:36;2.10;;;1.90;;
13185;SDS011;6658;53.080;7.428;2022-12-29T01:24:02;2.13;;;2.03;;
13185;SDS011;6658;53.080;7.428;2022-12-29T01:26:27;1.80;;;1.70;;
13185;SDS011;6658;53.080;7.428;2022-12-29T01:28:53;2.10;;;1.90;;
13185;SDS011;6658;53.080;7.428;2022-12-29T01:31:19;2.00;;;1.90;;
13185;SDS011;6658;53.080;7.428;2022-12-29T01:33:44;1.80;;;1.70;;
13185;SDS011;6658;53.080;7.428;2022-12-29T01:36:11;1.60;;;1.50;;
13185;SDS011;6658;53.080;7.428;2022-12-29T01:38:39;1.70;;;1.60;;
13185;SDS011;6658;53.080;7.428;2022-12-29T01:41:06;2.93;;;1.80;;
13185;SDS011;6658;53.080;7.428;2022-12-29T01:43:50;1.90;;;1.80;;
13185;SDS011;6658;53.080;7.428;2022-12-29T01:46:37;1.70;;;1.60;;
13185;SDS011;6658;53.080;7.428;2022-12-29T01:51:40;3.17;;;1.97;;
13185;SDS011;6658;53.080;7.428;2022-12-29T01:54:32;1.60;;;1.50;;
13185;SDS011;6658;53.080;7.428;2022-12-29T01:56:59;1.77;;;1.60;;
13185;SDS011;6658;53.080;7.428;2022-12-29T01:59:30;1.40;;;1.30;;
13185;SDS011;6658;53.080;7.428;2022-12-29T02:01:59;2.00;;;1.30;;
13185;SDS011;6658;53.080;7.428;2022-12-29T02:04:26;1.50;;;1.40;;
13185;SDS011;6658;53.080;7.428;2022-12-29T02:07:01;1.40;;;1.30;;
13185;SDS011;6658;53.080;7.428;2022-12-29T02:09:32;1.40;;;1.30;;
13185;SDS011;6658;53.080;7.428;2022-12-29T02:11:58;1.30;;;1.20;;
13185;SDS011;6658;53.080;7.428;2022-12-29T02:14:25;1.63;;;1.30;;
13185;SDS011;6658;53.080;7.428;2022-12-29T02:16:57;1.97;;;1.43;;
13185;SDS011;6658;53.080;7.428;2022-12-29T02:27:57;1.13;;;1.10;;
13185;SDS011;6658;53.080;7.428;2022-12-29T02:46:04;1.30;;;1.13;;
13185;SDS011;6658;53.080;7.428;2022-12-29T02:51:27;1.33;;;1.10;;
13185;SDS011;6658;53.080;7.428;2022-12-29T02:54:00;1.60;;;1.00;;
13185;SDS011;6658;53.080;7.428;2022-12-29T02:56:45;1.37;;;1.00;;
13185;SDS011;6658;53.080;7.428;2022-12-29T02:59:10;1.53;;;0.90;;
13185;SDS011;6658;53.080;7.428;2022-12-29T03:16:07;1.03;;;0.60;;
13185;SDS011;6658;53.080;7.428;2022-12-29T03:21:34;0.77;;;0.77;;
13185;SDS011;6658;53.080;7.428;2022-12-29T03:24:24;1.00;;;0.90;;
13185;SDS011;6658;53.080;7.428;2022-12-29T03:26:53;0.73;;;0.70;;
13185;SDS011;6658;53.080;7.428;2022-12-29T03:29:23;1.23;;;0.80;;
13185;SDS011;6658;53.080;7.428;2022-12-29T03:31:50;0.70;;;0.70;;
13185;SDS011;6658;53.080;7.428;2022-12-29T03:34:19;1.47;;;0.60;;
13185;SDS011;6658;53.080;7.428;2022-12-29T03:36:49;0.63;;;0.63;;
13185;SDS011;6658;53.080;7.428;2022-12-29T03:39:20;0.53;;;0.53;;
13185;SDS011;6658;53.080;7.428;2022-12-29T03:41:48;0.80;;;0.80;;
13185;SDS011;6658;53.080;7.428;2022-12-29T03:44:19;0.53;;;0.53;;
13185;SDS011;6658;53.080;7.428;2022-12-29T03:46:46;0.70;;;0.70;;
13185;SDS011;6658;53.080;7.428;2022-12-29T03:49:11;0.60;;;0.60;;
13185;SDS011;6658;53.080;7.428;2022-12-29T03:51:37;0.63;;;0.63;;
13185;SDS011;6658;53.080;7.428;2022-12-29T03:54:03;0.63;;;0.63;;
13185;SDS011;6658;53.080;7.428;2022-12-29T03:56:28;0.70;;;0.70;;
13185;SDS011;6658;53.080;7.428;2022-12-29T03:58:54;1.20;;;0.70;;
13185;SDS011;6658;53.080;7.428;2022-12-29T04:01:19;0.80;;;0.70;;
13185;SDS011;6658;53.080;7.428;2022-12-29T04:03:45;0.70;;;0.70;;
13185;SDS011;6658;53.080;7.428;2022-12-29T04:06:11;0.70;;;0.70;;
13185;SDS011;6658;53.080;7.428;2022-12-29T04:08:36;0.70;;;0.70;;
13185;SDS011;6658;53.080;7.428;2022-12-29T04:11:02;1.10;;;1.03;;
13185;SDS011;6658;53.080;7.428;2022-12-29T04:13:28;0.80;;;0.80;;
13185;SDS011;6658;53.080;7.428;2022-12-29T04:15:54;0.73;;;0.70;;
13185;SDS011;6658;53.080;7.428;2022-12-29T04:18:19;1.20;;;0.80;;
13185;SDS011;6658;53.080;7.428;2022-12-29T04:20:45;0.80;;;0.80;;
13185;SDS011;6658;53.080;7.428;2022-12-29T04:23:27;0.70;;;0.70;;
13185;SDS011;6658;53.080;7.428;2022-12-29T04:25:55;1.03;;;0.90;;
13185;SDS011;6658;53.080;7.428;2022-12-29T04:28:21;0.83;;;0.70;;
13185;SDS011;6658;53.080;7.428;2022-12-29T04:30:46;1.17;;;0.80;;
13185;SDS011;6658;53.080;7.428;2022-12-29T04:33:12;0.80;;;0.70;;
13185;SDS011;6658;53.080;7.428;2022-12-29T04:35:38;2.50;;;0.97;;
13185;SDS011;6658;53.080;7.428;2022-12-29T04:38:04;1.43;;;1.00;;
13185;SDS011;6658;53.080;7.428;2022-12-29T04:40:30;1.13;;;1.00;;
13185;SDS011;6658;53.080;7.428;2022-12-29T04:42:55;0.67;;;0.67;;
13185;SDS011;6658;53.080;7.428;2022-12-29T04:45:21;3.77;;;1.00;;
13185;SDS011;6658;53.080;7.428;2022-12-29T04:47:47;1.03;;;0.93;;
13185;SDS011;6658;53.080;7.428;2022-12-29T04:50:12;1.13;;;0.73;;
13185;SDS011;6658;53.080;7.428;2022-12-29T04:52:38;2.40;;;1.00;;
13185;SDS011;6658;53.080;7.428;2022-12-29T04:55:04;3.40;;;0.90;;
13185;SDS011;6658;53.080;7.428;2022-12-29T04:57:30;1.23;;;0.93;;
13185;SDS011;6658;53.080;7.428;2022-12-29T04:59:56;1.80;;;0.80;;
13185;SDS011;6658;53.080;7.428;2022-12-29T05:02:22;1.37;;;0.80;;
13185;SDS011;6658;53.080;7.428;2022-12-29T05:04:48;1.40;;;0.70;;
13185;SDS011;6658;53.080;7.428;2022-12-29T05:07:13;1.70;;;0.80;;
13185;SDS011;6658;53.080;7.428;2022-12-29T05:09:39;1.43;;;1.00;;
13185;SDS011;6658;53.080;7.428;2022-12-29T05:12:05;1.87;;;0.80;;
13185;SDS011;6658;53.080;7.428;2022-12-29T05:14:31;2.80;;;1.03;;
13185;SDS011;6658;53.080;7.428;2022-12-29T05:16:56;1.40;;;0.70;;
13185;SDS011;6658;53.080;7.428;2022-12-29T05:19:22;1.20;;;0.83;;
13185;SDS011;6658;53.080;7.428;2022-12-29T05:21:48;0.80;;;0.80;;
13185;SDS011;6658;53.080;7.428;2022-12-29T05:24:13;1.97;;;0.70;;
13185;SDS011;6658;53.080;7.428;2022-12-29T05:26:40;2.37;;;0.60;;
13185;SDS011;6658;53.080;7.428;2022-12-29T05:29:06;1.13;;;0.60;;
13185;SDS011;6658;53.080;7.428;2022-12-29T05:31:31;1.07;;;0.60;;
13185;SDS011;6658;53.080;7.428;2022-12-29T05:33:58;3.00;;;1.00;;
13185;SDS011;6658;53.080;7.428;2022-12-29T05:36:24;2.70;;;0.60;;
13185;SDS011;6658;53.080;7.428;2022-12-29T05:38:49;2.57;;;0.90;;
13185;SDS011;6658;53.080;7.428;2022-12-29T05:41:15;1.47;;;0.60;;
13185;SDS011;6658;53.080;7.428;2022-12-29T05:43:41;1.63;;;0.57;;
13185;SDS011;6658;53.080;7.428;2022-12-29T05:46:06;1.87;;;0.90;;
13185;SDS011;6658;53.080;7.428;2022-12-29T05:48:32;1.00;;;0.50;;
13185;SDS011;6658;53.080;7.428;2022-12-29T05:50:58;1.47;;;0.50;;
13185;SDS011;6658;53.080;7.428;2022-12-29T05:53:23;2.67;;;0.90;;
13185;SDS011;6658;53.080;7.428;2022-12-29T05:55:49;0.67;;;0.57;;
13185;SDS011;6658;53.080;7.428;2022-12-29T05:58:15;1.23;;;0.80;;
13185;SDS011;6658;53.080;7.428;2022-12-29T06:00:42;3.23;;;1.00;;
13185;SDS011;6658;53.080;7.428;2022-12-29T06:03:08;1.23;;;0.60;;
13185;SDS011;6658;53.080;7.428;2022-12-29T06:05:33;3.37;;;1.00;;
13185;SDS011;6658;53.080;7.428;2022-12-29T06:07:59;1.97;;;0.90;;
13185;SDS011;6658;53.080;7.428;2022-12-29T06:10:25;1.90;;;0.77;;
13185;SDS011;6658;53.080;7.428;2022-12-29T06:12:51;1.50;;;0.73;;
13185;SDS011;6658;53.080;7.428;2022-12-29T06:15:16;1.20;;;0.70;;
13185;SDS011;6658;53.080;7.428;2022-12-29T06:17:42;1.70;;;0.73;;
13185;SDS011;6658;53.080;7.428;2022-12-29T06:20:09;2.00;;;0.80;;
13185;SDS011;6658;53.080;7.428;2022-12-29T06:22:35;1.90;;;0.80;;
13185;SDS011;6658;53.080;7.428;2022-12-29T06:25:01;1.13;;;1.03;;
13185;SDS011;6658;53.080;7.428;2022-12-29T06:27:28;1.87;;;0.80;;
13185;SDS011;6658;53.080;7.428;2022-12-29T06:29:53;5.27;;;0.87;;
13185;SDS011;6658;53.080;7.428;2022-12-29T06:32:19;4.23;;;0.83;;
13185;SDS011;6658;53.080;7.428;2022-12-29T06:34:45;2.07;;;0.90;;
13185;SDS011;6658;53.080;7.428;2022-12-29T06:37:11;2.47;;;1.10;;
13185;SDS011;6658;53.080;7.428;2022-12-29T06:39:37;1.40;;;1.03;;
13185;SDS011;6658;53.080;7.428;2022-12-29T06:42:03;3.97;;;2.10;;
13185;SDS011;6658;53.080;7.428;2022-12-29T06:44:28;1.70;;;0.70;;
13185;SDS011;6658;53.080;7.428;2022-12-29T06:46:54;4.67;;;1.23;;
13185;SDS011;6658;53.080;7.428;2022-12-29T06:49:20;4.40;;;0.97;;
13185;SDS011;6658;53.080;7.428;2022-12-29T06:51:46;3.90;;;0.90;;
13185;SDS011;6658;53.080;7.428;2022-12-29T06:54:12;2.97;;;0.70;;
13185;SDS011;6658;53.080;7.428;2022-12-29T06:56:38;2.70;;;1.00;;
13185;SDS011;6658;53.080;7.428;2022-12-29T06:59:03;0.97;;;0.70;;
13185;SDS011;6658;53.080;7.428;2022-12-29T07:01:30;2.67;;;0.90;;
13185;SDS011;6658;53.080;7.428;2022-12-29T07:03:55;1.60;;;0.60;;
13185;SDS011;6658;53.080;7.428;2022-12-29T07:06:21;1.33;;;0.70;;
13185;SDS011;6658;53.080;7.428;2022-12-29T07:08:47;3.70;;;0.60;;
13185;SDS011;6658;53.080;7.428;2022-12-29T07:11:12;2.63;;;0.60;;
13185;SDS011;6658;53.080;7.428;2022-12-29T07:13:38;1.60;;;0.73;;
13185;SDS011;6658;53.080;7.428;2022-12-29T07:16:07;3.80;;;0.80;;
13185;SDS011;6658;53.080;7.428;2022-12-29T07:18:34;2.90;;;0.90;;
13185;SDS011;6658;53.080;7.428;2022-12-29T07:21:00;3.40;;;0.80;;
13185;SDS011;6658;53.080;7.428;2022-12-29T07:23:27;1.00;;;0.60;;
13185;SDS011;6658;53.080;7.428;2022-12-29T07:26:02;2.03;;;1.10;;
13185;SDS011;6658;53.080;7.428;2022-12-29T07:28:31;1.53;;;0.90;;
13185;SDS011;6658;53.080;7.428;2022-12-29T07:30:59;3.17;;;0.77;;
13185;SDS011;6658;53.080;7.428;2022-12-29T07:33:28;1.53;;;0.70;;
13185;SDS011;6658;53.080;7.428;2022-12-29T07:35:54;2.47;;;1.07;;
13185;SDS011;6658;53.080;7.428;2022-12-29T07:38:20;2.47;;;0.80;;
13185;SDS011;6658;53.080;7.428;2022-12-29T07:40:45;2.80;;;1.00;;
13185;SDS011;6658;53.080;7.428;2022-12-29T07:43:11;2.73;;;0.73;;
13185;SDS011;6658;53.080;7.428;2022-12-29T07:45:37;4.67;;;1.57;;
13185;SDS011;6658;53.080;7.428;2022-12-29T07:48:03;2.73;;;0.90;;
13185;SDS011;6658;53.080;7.428;2022-12-29T07:50:32;4.50;;;1.30;;
13185;SDS011;6658;53.080;7.428;2022-12-29T07:52:58;2.80;;;1.00;;
13185;SDS011;6658;53.080;7.428;2022-12-29T07:55:24;4.57;;;1.60;;
13185;SDS011;6658;53.080;7.428;2022-12-29T07:57:52;2.90;;;1.00;;
13185;SDS011;6658;53.080;7.428;2022-12-29T08:00:18;2.73;;;1.00;;
13185;SDS011;6658;53.080;7.428;2022-12-29T08:02:44;2.37;;;0.90;;
13185;SDS011;6658;53.080;7.428;2022-12-29T08:05:10;3.07;;;0.87;;
13185;SDS011;6658;53.080;7.428;2022-12-29T08:07:36;4.60;;;1.50;;
13185;SDS011;6658;53.080;7.428;2022-12-29T08:10:02;4.10;;;1.00;;
13185;SDS011;6658;53.080;7.428;2022-12-29T08:12:28;4.67;;;1.20;;
13185;SDS011;6658;53.080;7.428;2022-12-29T08:14:53;2.97;;;0.80;;
13185;SDS011;6658;53.080;7.428;2022-12-29T08:17:19;5.10;;;1.37;;
13185;SDS011;6658;53.080;7.428;2022-12-29T08:19:45;4.70;;;1.30;;
13185;SDS011;6658;53.080;7.428;2022-12-29T08:22:11;5.10;;;1.10;;
13185;SDS011;6658;53.080;7.428;2022-12-29T08:24:38;4.77;;;0.93;;
13185;SDS011;6658;53.080;7.428;2022-12-29T08:27:04;4.43;;;1.40;;
13185;SDS011;6658;53.080;7.428;2022-12-29T08:29:29;4.80;;;1.37;;
13185;SDS011;6658;53.080;7.428;2022-12-29T08:31:55;4.77;;;1.00;;
13185;SDS011;6658;53.080;7.428;2022-12-29T08:34:21;4.20;;;1.07;;
13185;SDS011;6658;53.080;7.428;2022-12-29T08:36:46;4.40;;;1.30;;
13185;SDS011;6658;53.080;7.428;2022-12-29T08:39:12;5.47;;;1.30;;
13185;SDS011;6658;53.080;7.428;2022-12-29T08:41:38;4.70;;;1.20;;
13185;SDS011;6658;53.080;7.428;2022-12-29T08:44:04;3.97;;;1.13;;
13185;SDS011;6658;53.080;7.428;2022-12-29T08:46:30;4.47;;;1.10;;
13185;SDS011;6658;53.080;7.428;2022-12-29T08:48:57;6.00;;;1.53;;
13185;SDS011;6658;53.080;7.428;2022-12-29T08:51:23;4.30;;;1.10;;
13185;SDS011;6658;53.080;7.428;2022-12-29T08:53:48;2.73;;;0.80;;
13185;SDS011;6658;53.080;7.428;2022-12-29T08:56:15;4.77;;;2.77;;
13185;SDS011;6658;53.080;7.428;2022-12-29T08:58:41;2.67;;;1.13;;
13185;SDS011;6658;53.080;7.428;2022-12-29T09:01:07;4.03;;;0.97;;
13185;SDS011;6658;53.080;7.428;2022-12-29T09:03:32;3.10;;;1.00;;
13185;SDS011;6658;53.080;7.428;2022-12-29T09:05:58;3.23;;;0.93;;
13185;SDS011;6658;53.080;7.428;2022-12-29T09:08:24;5.23;;;0.97;;
13185;SDS011;6658;53.080;7.428;2022-12-29T09:10:50;5.93;;;1.70;;
13185;SDS011;6658;53.080;7.428;2022-12-29T09:13:16;3.80;;;1.10;;
13185;SDS011;6658;53.080;7.428;2022-12-29T09:15:42;2.87;;;1.30;;
13185;SDS011;6658;53.080;7.428;2022-12-29T09:18:08;5.97;;;1.47;;
13185;SDS011;6658;53.080;7.428;2022-12-29T09:20:35;2.50;;;1.23;;
13185;SDS011;6658;53.080;7.428;2022-12-29T09:23:03;4.73;;;1.27;;
13185;SDS011;6658;53.080;7.428;2022-12-29T09:25:31;4.87;;;1.20;;
13185;SDS011;6658;53.080;7.428;2022-12-29T09:27:57;2.57;;;0.87;;
13185;SDS011;6658;53.080;7.428;2022-12-29T09:30:22;5.20;;;1.03;;
13185;SDS011;6658;53.080;7.428;2022-12-29T09:32:49;3.93;;;1.30;;
13185;SDS011;6658;53.080;7.428;2022-12-29T09:35:15;5.27;;;1.07;;
13185;SDS011;6658;53.080;7.428;2022-12-29T09:37:41;4.20;;;1.10;;
13185;SDS011;6658;53.080;7.428;2022-12-29T09:40:30;2.33;;;1.00;;
13185;SDS011;6658;53.080;7.428;2022-12-29T09:43:11;3.90;;;1.10;;
13185;SDS011;6658;53.080;7.428;2022-12-29T09:45:58;4.57;;;1.00;;
13185;SDS011;6658;53.080;7.428;2022-12-29T09:48:27;2.87;;;1.13;;
13185;SDS011;6658;53.080;7.428;2022-12-29T09:50:57;5.87;;;1.13;;
13185;SDS011;6658;53.080;7.428;2022-12-29T09:53:29;4.53;;;0.93;;
13185;SDS011;6658;53.080;7.428;2022-12-29T09:56:03;2.60;;;0.93;;
13185;SDS011;6658;53.080;7.428;2022-12-29T10:01:44;1.70;;;0.77;;
13185;SDS011;6658;53.080;7.428;2022-12-29T10:04:17;3.40;;;0.93;;
13185;SDS011;6658;53.080;7.428;2022-12-29T10:06:49;3.63;;;1.20;;
13185;SDS011;6658;53.080;7.428;2022-12-29T10:12:17;4.83;;;1.27;;
13185;SDS011;6658;53.080;7.428;2022-12-29T10:15:05;5.97;;;1.40;;
13185;SDS011;6658;53.080;7.428;2022-12-29T10:20:57;4.80;;;1.47;;
13185;SDS011;6658;53.080;7.428;2022-12-29T10:23:54;4.27;;;0.90;;
13185;SDS011;6658;53.080;7.428;2022-12-29T10:26:27;5.30;;;1.50;;
13185;SDS011;6658;53.080;7.428;2022-12-29T10:28:59;5.97;;;1.33;;
13185;SDS011;6658;53.080;7.428;2022-12-29T10:31:32;4.30;;;1.20;;
13185;SDS011;6658;53.080;7.428;2022-12-29T10:34:14;2.93;;;1.47;;
13185;SDS011;6658;53.080;7.428;2022-12-29T10:36:57;3.93;;;1.00;;
13185;SDS011;6658;53.080;7.428;2022-12-29T10:39:51;3.93;;;1.10;;
13185;SDS011;6658;53.080;7.428;2022-12-29T10:44:51;3.17;;;1.13;;
13185;SDS011;6658;53.080;7.428;2022-12-29T10:47:20;5.10;;;0.90;;
13185;SDS011;6658;53.080;7.428;2022-12-29T10:49:49;5.13;;;1.83;;
13185;SDS011;6658;53.080;7.428;2022-12-29T10:52:16;2.50;;;0.97;;
13185;SDS011;6658;53.080;7.428;2022-12-29T10:54:54;4.17;;;1.37;;
13185;SDS011;6658;53.080;7.428;2022-12-29T10:59:59;4.13;;;1.30;;
13185;SDS011;6658;53.080;7.428;2022-12-29T11:05:12;4.60;;;1.27;;
13185;SDS011;6658;53.080;7.428;2022-12-29T11:07:58;5.07;;;1.40;;
13185;SDS011;6658;53.080;7.428;2022-12-29T11:13:02;5.00;;;1.10;;
13185;SDS011;6658;53.080;7.428;2022-12-29T11:15:45;5.33;;;1.20;;
13185;SDS011;6658;53.080;7.428;2022-12-29T11:18:30;3.93;;;1.57;;
13185;SDS011;6658;53.080;7.428;2022-12-29T11:20:59;3.70;;;1.20;;
13185;SDS011;6658;53.080;7.428;2022-12-29T11:23:30;4.70;;;1.10;;
13185;SDS011;6658;53.080;7.428;2022-12-29T11:26:07;4.43;;;0.93;;
13185;SDS011;6658;53.080;7.428;2022-12-29T11:28:37;2.60;;;1.20;;
13185;SDS011;6658;53.080;7.428;2022-12-29T11:31:03;3.73;;;1.00;;
13185;SDS011;6658;53.080;7.428;2022-12-29T11:33:31;4.30;;;1.30;;
13185;SDS011;6658;53.080;7.428;2022-12-29T11:36:02;3.80;;;1.30;;
13185;SDS011;6658;53.080;7.428;2022-12-29T11:38:36;5.17;;;0.80;;
13185;SDS011;6658;53.080;7.428;2022-12-29T11:41:05;2.90;;;1.27;;
13185;SDS011;6658;53.080;7.428;2022-12-29T11:43:32;5.43;;;1.23;;
13185;SDS011;6658;53.080;7.428;2022-12-29T11:46:02;2.03;;;0.90;;
13185;SDS011;6658;53.080;7.428;2022-12-29T11:48:40;5.13;;;1.30;;
13185;SDS011;6658;53.080;7.428;2022-12-29T11:51:07;1.97;;;1.00;;
13185;SDS011;6658;53.080;7.428;2022-12-29T11:53:45;2.40;;;0.87;;
13185;SDS011;6658;53.080;7.428;2022-12-29T11:56:20;3.23;;;1.00;;
13185;SDS011;6658;53.080;7.428;2022-12-29T11:58:57;2.80;;;1.10;;
13185;SDS011;6658;53.080;7.428;2022-12-29T12:01:43;16.93;;;11.87;;
13185;SDS011;6658;53.080;7.428;2022-12-29T12:04:20;4.47;;;2.97;;
13185;SDS011;6658;53.080;7.428;2022-12-29T12:09:31;3.03;;;1.00;;
13185;SDS011;6658;53.080;7.428;2022-12-29T12:12:03;4.83;;;1.47;;
13185;SDS011;6658;53.080;7.428;2022-12-29T12:14:34;4.20;;;1.60;;
13185;SDS011;6658;53.080;7.428;2022-12-29T12:17:09;2.80;;;1.03;;
13185;SDS011;6658;53.080;7.428;2022-12-29T12:22:11;2.10;;;1.03;;
13185;SDS011;6658;53.080;7.428;2022-12-29T12:30:17;2.33;;;0.90;;
13185;SDS011;6658;53.080;7.428;2022-12-29T12:32:50;3.57;;;1.37;;
13185;SDS011;6658;53.080;7.428;2022-12-29T12:38:27;6.03;;;2.10;;
13185;SDS011;6658;53.080;7.428;2022-12-29T12:41:06;6.20;;;2.17;;
13185;SDS011;6658;53.080;7.428;2022-12-29T13:00:26;7.20;;;1.87;;
13185;SDS011;6658;53.080;7.428;2022-12-29T13:11:20;6.13;;;1.77;;
13185;SDS011;6658;53.080;7.428;2022-12-29T13:19:49;5.37;;;2.20;;
13185;SDS011;6658;53.080;7.428;2022-12-29T13:22:33;6.23;;;2.17;;
13185;SDS011;6658;53.080;7.428;2022-12-29T13:28:01;7.87;;;2.17;;
13185;SDS011;6658;53.080;7.428;2022-12-29T13:30:41;9.77;;;3.93;;
13185;SDS011;6658;53.080;7.428;2022-12-29T13:33:23;4.13;;;1.83;;
13185;SDS011;6658;53.080;7.428;2022-12-29T13:36:07;7.67;;;2.03;;
13185;SDS011;6658;53.080;7.428;2022-12-29T13:38:43;6.73;;;1.53;;
13185;SDS011;6658;53.080;7.428;2022-12-29T13:43:54;5.90;;;1.80;;
13185;SDS011;6658;53.080;7.428;2022-12-29T13:46:23;7.20;;;1.60;;
13185;SDS011;6658;53.080;7.428;2022-12-29T13:48:59;6.13;;;1.80;;
13185;SDS011;6658;53.080;7.428;2022-12-29T13:51:53;7.63;;;1.90;;
13185;SDS011;6658;53.080;7.428;2022-12-29T14:00:16;6.37;;;1.60;;
13185;SDS011;6658;53.080;7.428;2022-12-29T14:05:32;7.60;;;1.97;;
13185;SDS011;6658;53.080;7.428;2022-12-29T14:07:58;6.13;;;1.60;;
13185;SDS011;6658;53.080;7.428;2022-12-29T14:10:34;7.63;;;2.03;;
13185;SDS011;6658;53.080;7.428;2022-12-29T14:15:38;6.43;;;1.87;;
13185;SDS011;6658;53.080;7.428;2022-12-29T14:18:11;7.27;;;2.23;;
13185;SDS011;6658;53.080;7.428;2022-12-29T14:31:49;6.00;;;1.40;;
13185;SDS011;6658;53.080;7.428;2022-12-29T14:36:37;7.03;;;1.60;;
13185;SDS011;6658;53.080;7.428;2022-12-29T14:39:04;6.77;;;2.00;;
13185;SDS011;6658;53.080;7.428;2022-12-29T14:42:03;5.17;;;1.50;;
13185;SDS011;6658;53.080;7.428;2022-12-29T14:47:54;7.00;;;1.97;;
13185;SDS011;6658;53.080;7.428;2022-12-29T14:50:37;7.17;;;2.33;;
13185;SDS011;6658;53.080;7.428;2022-12-29T14:53:10;4.73;;;1.90;;
13185;SDS011;6658;53.080;7.428;2022-12-29T14:56:11;6.83;;;1.60;;
13185;SDS011;6658;53.080;7.428;2022-12-29T15:01:39;5.50;;;1.70;;
13185;SDS011;6658;53.080;7.428;2022-12-29T15:04:21;6.47;;;1.80;;
13185;SDS011;6658;53.080;7.428;2022-12-29T15:06:50;6.03;;;2.60;;
13185;SDS011;6658;53.080;7.428;2022-12-29T15:09:40;5.40;;;1.63;;
13185;SDS011;6658;53.080;7.428;2022-12-29T15:14:59;5.13;;;2.07;;
13185;SDS011;6658;53.080;7.428;2022-12-29T15:17:32;6.73;;;1.77;;
13185;SDS011;6658;53.080;7.428;2022-12-29T15:20:44;4.73;;;1.90;;
13185;SDS011;6658;53.080;7.428;2022-12-29T15:22:56;4.13;;;1.37;;
13185;SDS011;6658;53.080;7.428;2022-12-29T15:25:33;6.97;;;2.03;;
13185;SDS011;6658;53.080;7.428;2022-12-29T15:28:01;7.00;;;2.00;;
13185;SDS011;6658;53.080;7.428;2022-12-29T15:30:29;5.83;;;1.70;;
13185;SDS011;6658;53.080;7.428;2022-12-29T15:32:55;4.70;;;1.50;;
13185;SDS011;6658;53.080;7.428;2022-12-29T15:37:48;7.37;;;2.43;;
13185;SDS011;6658;53.080;7.428;2022-12-29T15:40:21;4.60;;;2.07;;
13185;SDS011;6658;53.080;7.428;2022-12-29T15:45:57;6.27;;;1.83;;
13185;SDS011;6658;53.080;7.428;2022-12-29T15:48:26;5.30;;;2.00;;
13185;SDS011;6658;53.080;7.428;2022-12-29T15:50:53;4.60;;;1.80;;
13185;SDS011;6658;53.080;7.428;2022-12-29T15:53:26;5.00;;;1.70;;
13185;SDS011;6658;53.080;7.428;2022-12-29T15:56:16;11.17;;;2.43;;
13185;SDS011;6658;53.080;7.428;2022-12-29T15:58:45;4.63;;;1.50;;
13185;SDS011;6658;53.080;7.428;2022-12-29T16:01:32;5.17;;;1.60;;
13185;SDS011;6658;53.080;7.428;2022-12-29T16:03:59;6.50;;;1.93;;
13185;SDS011;6658;53.080;7.428;2022-12-29T16:06:33;3.97;;;1.70;;
13185;SDS011;6658;53.080;7.428;2022-12-29T16:09:09;4.83;;;1.70;;
13185;SDS011;6658;53.080;7.428;2022-12-29T16:12:01;5.47;;;1.73;;
13185;SDS011;6658;53.080;7.428;2022-12-29T16:14:42;7.97;;;2.13;;
13185;SDS011;6658;53.080;7.428;2022-12-29T16:17:12;7.33;;;2.00;;
13185;SDS011;6658;53.080;7.428;2022-12-29T16:19:41;4.50;;;1.90;;
13185;SDS011;6658;53.080;7.428;2022-12-29T16:22:30;4.73;;;2.20;;
13185;SDS011;6658;53.080;7.428;2022-12-29T16:25:28;5.63;;;2.07;;
13185;SDS011;6658;53.080;7.428;2022-12-29T16:27:56;4.83;;;2.20;;
13185;SDS011;6658;53.080;7.428;2022-12-29T16:32:57;7.03;;;2.30;;
13185;SDS011;6658;53.080;7.428;2022-12-29T16:35:26;5.73;;;2.30;;
13185;SDS011;6658;53.080;7.428;2022-12-29T16:40:39;5.77;;;2.27;;
13185;SDS011;6658;53.080;7.428;2022-12-29T16:43:23;6.57;;;1.87;;
13185;SDS011;6658;53.080;7.428;2022-12-29T16:50:42;6.77;;;2.07;;
13185;SDS011;6658;53.080;7.428;2022-12-29T16:53:42;7.00;;;2.73;;
13185;SDS011;6658;53.080;7.428;2022-12-29T16:56:08;6.23;;;2.40;;
13185;SDS011;6658;53.080;7.428;2022-12-29T16:59:19;9.23;;;3.07;;
13185;SDS011;6658;53.080;7.428;2022-12-29T17:01:50;7.07;;;2.97;;
13185;SDS011;6658;53.080;7.428;2022-12-29T17:04:16;10.97;;;3.60;;
13185;SDS011;6658;53.080;7.428;2022-12-29T17:06:42;9.17;;;3.67;;
13185;SDS011;6658;53.080;7.428;2022-12-29T17:09:17;9.10;;;3.07;;
13185;SDS011;6658;53.080;7.428;2022-12-29T17:11:44;10.97;;;4.77;;
13185;SDS011;6658;53.080;7.428;2022-12-29T17:17:00;10.17;;;3.33;;
13185;SDS011;6658;53.080;7.428;2022-12-29T17:19:29;7.03;;;2.53;;
13185;SDS011;6658;53.080;7.428;2022-12-29T17:21:59;5.97;;;2.73;;
13185;SDS011;6658;53.080;7.428;2022-12-29T17:24:26;8.27;;;3.70;;
13185;SDS011;6658;53.080;7.428;2022-12-29T17:26:52;4.23;;;1.83;;
13185;SDS011;6658;53.080;7.428;2022-12-29T17:29:44;3.83;;;1.63;;
13185;SDS011;6658;53.080;7.428;2022-12-29T17:32:12;4.27;;;1.40;;
13185;SDS011;6658;53.080;7.428;2022-12-29T17:34:39;1.50;;;1.00;;
13185;SDS011;6658;53.080;7.428;2022-12-29T17:37:47;1.97;;;0.73;;
13185;SDS011;6658;53.080;7.428;2022-12-29T17:39:56;1.03;;;0.80;;
13185;SDS011;6658;53.080;7.428;2022-12-29T17:42:22;2.17;;;0.77;;
13185;SDS011;6658;53.080;7.428;2022-12-29T17:44:48;1.40;;;0.90;;
13185;SDS011;6658;53.080;7.428;2022-12-29T17:47:13;1.57;;;1.00;;
13185;SDS011;6658;53.080;7.428;2022-12-29T17:49:40;1.70;;;0.73;;
13185;SDS011;6658;53.080;7.428;2022-12-29T17:52:12;0.90;;;0.70;;
13185;SDS011;6658;53.080;7.428;2022-12-29T17:54:41;0.83;;;0.50;;
13185;SDS011;6658;53.080;7.428;2022-12-29T17:57:14;0.60;;;0.50;;
13185;SDS011;6658;53.080;7.428;2022-12-29T17:59:41;1.73;;;0.70;;
13185;SDS011;6658;53.080;7.428;2022-12-29T18:04:47;1.50;;;0.60;;
13185;SDS011;6658;53.080;7.428;2022-12-29T18:07:12;2.53;;;0.77;;
13185;SDS011;6658;53.080;7.428;2022-12-29T18:09:38;2.23;;;1.20;;
13185;SDS011;6658;53.080;7.428;2022-12-29T18:12:04;1.77;;;0.90;;
13185;SDS011;6658;53.080;7.428;2022-12-29T18:14:31;1.30;;;1.00;;